<?xml version="1.0" encoding="UTF-8" standalone="no" ?>
<gpx xmlns="http://www.topografix.com/GPX/1/1" xmlns:xsi="http://www.w3.org/2001/XMLSchema-instance" xsi:schemaLocation="http://www.topografix.com/GPX/1/1 http://www.topografix.com/GPX/1/1/gpx.xsd" version="1.1" creator="VisuGPX - https://www.visugpx.com">
  <metadata>
    <name>chapelle saint georges borie perchee</name>
    <desc><![CDATA[Rando proposée par Sylvie/Marlène pour gransrandonnée]]></desc>
  </metadata>
  <trk>
    <name><![CDATA[chapelle saint georges borie perchee]]></name>
    <trkseg>
      <trkpt lat="43.60839" lon="5.06693">
        <ele>55.9</ele>
        <time>2021-04-08T13:40:35+02:00</time>
      </trkpt>
      <trkpt lat="43.60823" lon="5.06671">
        <ele>56.2</ele>
        <time>2021-04-08T13:41:24+02:00</time>
      </trkpt>
      <trkpt lat="43.608" lon="5.06678">
        <ele>56.7</ele>
        <time>2021-04-08T13:41:55+02:00</time>
      </trkpt>
      <trkpt lat="43.60778" lon="5.06675">
        <ele>57.2</ele>
        <time>2021-04-08T13:42:17+02:00</time>
      </trkpt>
      <trkpt lat="43.60759" lon="5.06658">
        <ele>57.9</ele>
        <time>2021-04-08T13:42:39+02:00</time>
      </trkpt>
      <trkpt lat="43.60738" lon="5.06644">
        <ele>58.3</ele>
        <time>2021-04-08T13:42:58+02:00</time>
      </trkpt>
      <trkpt lat="43.60722" lon="5.06622">
        <ele>58.5</ele>
        <time>2021-04-08T13:43:19+02:00</time>
      </trkpt>
      <trkpt lat="43.60699" lon="5.06619">
        <ele>58.5</ele>
        <time>2021-04-08T13:43:43+02:00</time>
      </trkpt>
      <trkpt lat="43.60678" lon="5.06632">
        <ele>58.6</ele>
        <time>2021-04-08T13:44:06+02:00</time>
      </trkpt>
      <trkpt lat="43.60659" lon="5.0665">
        <ele>58.7</ele>
        <time>2021-04-08T13:44:28+02:00</time>
      </trkpt>
      <trkpt lat="43.60642" lon="5.06671">
        <ele>58.6</ele>
        <time>2021-04-08T13:44:48+02:00</time>
      </trkpt>
      <trkpt lat="43.6062" lon="5.06678">
        <ele>58.3</ele>
        <time>2021-04-08T13:45:10+02:00</time>
      </trkpt>
      <trkpt lat="43.606" lon="5.06694">
        <ele>58</ele>
        <time>2021-04-08T13:45:29+02:00</time>
      </trkpt>
      <trkpt lat="43.60583" lon="5.06716">
        <ele>58</ele>
        <time>2021-04-08T13:45:51+02:00</time>
      </trkpt>
      <trkpt lat="43.6057" lon="5.06741">
        <ele>58.1</ele>
        <time>2021-04-08T13:46:11+02:00</time>
      </trkpt>
      <trkpt lat="43.60552" lon="5.06762">
        <ele>57.9</ele>
        <time>2021-04-08T13:46:32+02:00</time>
      </trkpt>
      <trkpt lat="43.60531" lon="5.06773">
        <ele>57.7</ele>
        <time>2021-04-08T13:46:55+02:00</time>
      </trkpt>
      <trkpt lat="43.60509" lon="5.06776">
        <ele>57.9</ele>
        <time>2021-04-08T13:47:17+02:00</time>
      </trkpt>
      <trkpt lat="43.60496" lon="5.0675">
        <ele>58.9</ele>
        <time>2021-04-08T13:47:38+02:00</time>
      </trkpt>
      <trkpt lat="43.60493" lon="5.06718">
        <ele>58.5</ele>
        <time>2021-04-08T13:47:57+02:00</time>
      </trkpt>
      <trkpt lat="43.60488" lon="5.06688">
        <ele>58.2</ele>
        <time>2021-04-08T13:48:23+02:00</time>
      </trkpt>
      <trkpt lat="43.60466" lon="5.067">
        <ele>58.1</ele>
        <time>2021-04-08T13:48:47+02:00</time>
      </trkpt>
      <trkpt lat="43.60444" lon="5.06708">
        <ele>57.8</ele>
        <time>2021-04-08T13:49:09+02:00</time>
      </trkpt>
      <trkpt lat="43.60422" lon="5.06718">
        <ele>57.5</ele>
        <time>2021-04-08T13:49:28+02:00</time>
      </trkpt>
      <trkpt lat="43.604" lon="5.06731">
        <ele>58</ele>
        <time>2021-04-08T13:49:53+02:00</time>
      </trkpt>
      <trkpt lat="43.60378" lon="5.06726">
        <ele>59</ele>
        <time>2021-04-08T13:50:13+02:00</time>
      </trkpt>
      <trkpt lat="43.60364" lon="5.06702">
        <ele>59.8</ele>
        <time>2021-04-08T13:50:38+02:00</time>
      </trkpt>
      <trkpt lat="43.60345" lon="5.06721">
        <ele>60.5</ele>
        <time>2021-04-08T13:51:07+02:00</time>
      </trkpt>
      <trkpt lat="43.60333" lon="5.06748">
        <ele>61</ele>
        <time>2021-04-08T13:51:28+02:00</time>
      </trkpt>
      <trkpt lat="43.60326" lon="5.06778">
        <ele>61</ele>
        <time>2021-04-08T13:51:48+02:00</time>
      </trkpt>
      <trkpt lat="43.60326" lon="5.06811">
        <ele>60.7</ele>
        <time>2021-04-08T13:52:10+02:00</time>
      </trkpt>
      <trkpt lat="43.60326" lon="5.06842">
        <ele>60.5</ele>
        <time>2021-04-08T13:52:33+02:00</time>
      </trkpt>
      <trkpt lat="43.60331" lon="5.06874">
        <ele>60.7</ele>
        <time>2021-04-08T13:52:53+02:00</time>
      </trkpt>
      <trkpt lat="43.60344" lon="5.069">
        <ele>60.3</ele>
        <time>2021-04-08T13:53:13+02:00</time>
      </trkpt>
      <trkpt lat="43.60352" lon="5.0693">
        <ele>60.1</ele>
        <time>2021-04-08T13:53:31+02:00</time>
      </trkpt>
      <trkpt lat="43.60361" lon="5.06959">
        <ele>59.8</ele>
        <time>2021-04-08T13:53:50+02:00</time>
      </trkpt>
      <trkpt lat="43.60372" lon="5.06987">
        <ele>59.5</ele>
        <time>2021-04-08T13:54:10+02:00</time>
      </trkpt>
      <trkpt lat="43.60382" lon="5.07017">
        <ele>59.4</ele>
        <time>2021-04-08T13:54:31+02:00</time>
      </trkpt>
      <trkpt lat="43.60391" lon="5.07045">
        <ele>59.3</ele>
        <time>2021-04-08T13:54:50+02:00</time>
      </trkpt>
      <trkpt lat="43.60415" lon="5.07046">
        <ele>58.6</ele>
        <time>2021-04-08T13:55:12+02:00</time>
      </trkpt>
      <trkpt lat="43.60431" lon="5.07023">
        <ele>57.8</ele>
        <time>2021-04-08T13:55:31+02:00</time>
      </trkpt>
      <trkpt lat="43.60446" lon="5.06998">
        <ele>56.9</ele>
        <time>2021-04-08T13:55:52+02:00</time>
      </trkpt>
      <trkpt lat="43.60457" lon="5.0697">
        <ele>56.2</ele>
        <time>2021-04-08T13:56:11+02:00</time>
      </trkpt>
      <trkpt lat="43.60466" lon="5.06942">
        <ele>55.5</ele>
        <time>2021-04-08T13:56:35+02:00</time>
      </trkpt>
      <trkpt lat="43.60477" lon="5.06911">
        <ele>54.9</ele>
        <time>2021-04-08T13:56:53+02:00</time>
      </trkpt>
      <trkpt lat="43.60479" lon="5.0688">
        <ele>55.4</ele>
        <time>2021-04-08T13:57:17+02:00</time>
      </trkpt>
      <trkpt lat="43.60471" lon="5.0691">
        <ele>55.2</ele>
        <time>2021-04-08T13:59:59+02:00</time>
      </trkpt>
      <trkpt lat="43.60458" lon="5.06936">
        <ele>55.7</ele>
        <time>2021-04-08T14:00:26+02:00</time>
      </trkpt>
      <trkpt lat="43.60452" lon="5.06967">
        <ele>56.3</ele>
        <time>2021-04-08T14:00:46+02:00</time>
      </trkpt>
      <trkpt lat="43.60442" lon="5.06996">
        <ele>57</ele>
        <time>2021-04-08T14:01:00+02:00</time>
      </trkpt>
      <trkpt lat="43.60426" lon="5.07019">
        <ele>57.9</ele>
        <time>2021-04-08T14:01:30+02:00</time>
      </trkpt>
      <trkpt lat="43.60411" lon="5.07043">
        <ele>58.7</ele>
        <time>2021-04-08T14:01:47+02:00</time>
      </trkpt>
      <trkpt lat="43.60393" lon="5.07024">
        <ele>59.1</ele>
        <time>2021-04-08T14:02:14+02:00</time>
      </trkpt>
      <trkpt lat="43.60384" lon="5.06995">
        <ele>59.1</ele>
        <time>2021-04-08T14:02:34+02:00</time>
      </trkpt>
      <trkpt lat="43.60372" lon="5.06968">
        <ele>59.4</ele>
        <time>2021-04-08T14:02:54+02:00</time>
      </trkpt>
      <trkpt lat="43.60363" lon="5.06939">
        <ele>59.7</ele>
        <time>2021-04-08T14:03:10+02:00</time>
      </trkpt>
      <trkpt lat="43.60351" lon="5.06912">
        <ele>60.1</ele>
        <time>2021-04-08T14:03:30+02:00</time>
      </trkpt>
      <trkpt lat="43.60338" lon="5.06886">
        <ele>60.4</ele>
        <time>2021-04-08T14:03:49+02:00</time>
      </trkpt>
      <trkpt lat="43.60326" lon="5.06859">
        <ele>60.7</ele>
        <time>2021-04-08T14:04:06+02:00</time>
      </trkpt>
      <trkpt lat="43.60317" lon="5.0683">
        <ele>61</ele>
        <time>2021-04-08T14:04:26+02:00</time>
      </trkpt>
      <trkpt lat="43.60295" lon="5.06819">
        <ele>62.4</ele>
        <time>2021-04-08T14:04:45+02:00</time>
      </trkpt>
      <trkpt lat="43.60272" lon="5.06813">
        <ele>63.8</ele>
        <time>2021-04-08T14:05:12+02:00</time>
      </trkpt>
      <trkpt lat="43.60249" lon="5.06804">
        <ele>65</ele>
        <time>2021-04-08T14:05:35+02:00</time>
      </trkpt>
      <trkpt lat="43.60227" lon="5.06812">
        <ele>64.6</ele>
        <time>2021-04-08T14:05:51+02:00</time>
      </trkpt>
      <trkpt lat="43.60207" lon="5.06824">
        <ele>64.1</ele>
        <time>2021-04-08T14:06:07+02:00</time>
      </trkpt>
      <trkpt lat="43.60183" lon="5.06829">
        <ele>63.5</ele>
        <time>2021-04-08T14:06:30+02:00</time>
      </trkpt>
      <trkpt lat="43.6016" lon="5.0684">
        <ele>62.9</ele>
        <time>2021-04-08T14:06:48+02:00</time>
      </trkpt>
      <trkpt lat="43.60146" lon="5.06865">
        <ele>62.7</ele>
        <time>2021-04-08T14:07:05+02:00</time>
      </trkpt>
      <trkpt lat="43.60143" lon="5.06897">
        <ele>62.7</ele>
        <time>2021-04-08T14:07:28+02:00</time>
      </trkpt>
      <trkpt lat="43.60147" lon="5.0693">
        <ele>62.9</ele>
        <time>2021-04-08T14:07:47+02:00</time>
      </trkpt>
      <trkpt lat="43.60148" lon="5.06963">
        <ele>63.2</ele>
        <time>2021-04-08T14:08:04+02:00</time>
      </trkpt>
      <trkpt lat="43.60147" lon="5.06995">
        <ele>63.5</ele>
        <time>2021-04-08T14:08:21+02:00</time>
      </trkpt>
      <trkpt lat="43.60152" lon="5.07027">
        <ele>63.8</ele>
        <time>2021-04-08T14:08:43+02:00</time>
      </trkpt>
      <trkpt lat="43.60147" lon="5.07058">
        <ele>63.9</ele>
        <time>2021-04-08T14:08:59+02:00</time>
      </trkpt>
      <trkpt lat="43.60126" lon="5.07072">
        <ele>63.9</ele>
        <time>2021-04-08T14:09:31+02:00</time>
      </trkpt>
      <trkpt lat="43.60102" lon="5.07076">
        <ele>63.9</ele>
        <time>2021-04-08T14:09:50+02:00</time>
      </trkpt>
      <trkpt lat="43.6008" lon="5.07074">
        <ele>63.7</ele>
        <time>2021-04-08T14:10:08+02:00</time>
      </trkpt>
      <trkpt lat="43.60057" lon="5.07082">
        <ele>63.6</ele>
        <time>2021-04-08T14:10:26+02:00</time>
      </trkpt>
      <trkpt lat="43.60034" lon="5.07082">
        <ele>63.4</ele>
        <time>2021-04-08T14:10:44+02:00</time>
      </trkpt>
      <trkpt lat="43.60012" lon="5.07092">
        <ele>63.3</ele>
        <time>2021-04-08T14:11:05+02:00</time>
      </trkpt>
      <trkpt lat="43.59994" lon="5.0711">
        <ele>63.1</ele>
        <time>2021-04-08T14:11:27+02:00</time>
      </trkpt>
      <trkpt lat="43.59974" lon="5.07124">
        <ele>62.7</ele>
        <time>2021-04-08T14:11:46+02:00</time>
      </trkpt>
      <trkpt lat="43.59964" lon="5.07154">
        <ele>62.9</ele>
        <time>2021-04-08T14:12:04+02:00</time>
      </trkpt>
      <trkpt lat="43.59954" lon="5.07184">
        <ele>63</ele>
        <time>2021-04-08T14:12:24+02:00</time>
      </trkpt>
      <trkpt lat="43.59948" lon="5.07231">
        <ele>63.2</ele>
        <time>2021-04-08T14:12:40+02:00</time>
      </trkpt>
      <trkpt lat="43.59933" lon="5.07255">
        <ele>63.2</ele>
        <time>2021-04-08T14:13:07+02:00</time>
      </trkpt>
      <trkpt lat="43.5992" lon="5.07283">
        <ele>63.4</ele>
        <time>2021-04-08T14:13:29+02:00</time>
      </trkpt>
      <trkpt lat="43.59914" lon="5.07313">
        <ele>63.6</ele>
        <time>2021-04-08T14:13:54+02:00</time>
      </trkpt>
      <trkpt lat="43.59917" lon="5.07345">
        <ele>63.5</ele>
        <time>2021-04-08T14:14:24+02:00</time>
      </trkpt>
      <trkpt lat="43.59906" lon="5.07374">
        <ele>61.6</ele>
        <time>2021-04-08T14:14:44+02:00</time>
      </trkpt>
      <trkpt lat="43.59894" lon="5.07407">
        <ele>59.8</ele>
        <time>2021-04-08T14:14:58+02:00</time>
      </trkpt>
      <trkpt lat="43.59872" lon="5.0742">
        <ele>58.9</ele>
        <time>2021-04-08T14:15:19+02:00</time>
      </trkpt>
      <trkpt lat="43.5985" lon="5.07434">
        <ele>58.4</ele>
        <time>2021-04-08T14:15:40+02:00</time>
      </trkpt>
      <trkpt lat="43.59833" lon="5.07455">
        <ele>58.4</ele>
        <time>2021-04-08T14:16:04+02:00</time>
      </trkpt>
      <trkpt lat="43.59832" lon="5.07487">
        <ele>58.8</ele>
        <time>2021-04-08T14:16:31+02:00</time>
      </trkpt>
      <trkpt lat="43.59826" lon="5.07517">
        <ele>58.7</ele>
        <time>2021-04-08T14:17:01+02:00</time>
      </trkpt>
      <trkpt lat="43.59806" lon="5.07534">
        <ele>58.3</ele>
        <time>2021-04-08T14:17:23+02:00</time>
      </trkpt>
      <trkpt lat="43.59795" lon="5.07562">
        <ele>58.4</ele>
        <time>2021-04-08T14:17:39+02:00</time>
      </trkpt>
      <trkpt lat="43.59789" lon="5.07592">
        <ele>58.8</ele>
        <time>2021-04-08T14:17:58+02:00</time>
      </trkpt>
      <trkpt lat="43.59782" lon="5.07624">
        <ele>59.8</ele>
        <time>2021-04-08T14:18:14+02:00</time>
      </trkpt>
      <trkpt lat="43.59784" lon="5.07656">
        <ele>60.7</ele>
        <time>2021-04-08T14:18:35+02:00</time>
      </trkpt>
      <trkpt lat="43.59772" lon="5.07683">
        <ele>61.1</ele>
        <time>2021-04-08T14:18:52+02:00</time>
      </trkpt>
      <trkpt lat="43.59755" lon="5.07703">
        <ele>61</ele>
        <time>2021-04-08T14:19:32+02:00</time>
      </trkpt>
      <trkpt lat="43.59758" lon="5.07736">
        <ele>61.1</ele>
        <time>2021-04-08T14:19:50+02:00</time>
      </trkpt>
      <trkpt lat="43.59777" lon="5.07713">
        <ele>61.2</ele>
        <time>2021-04-08T14:19:59+02:00</time>
      </trkpt>
      <trkpt lat="43.5976" lon="5.07737">
        <ele>61.1</ele>
        <time>2021-04-08T14:20:11+02:00</time>
      </trkpt>
      <trkpt lat="43.59745" lon="5.07761">
        <ele>61</ele>
        <time>2021-04-08T14:20:33+02:00</time>
      </trkpt>
      <trkpt lat="43.59729" lon="5.07786">
        <ele>61.1</ele>
        <time>2021-04-08T14:20:46+02:00</time>
      </trkpt>
      <trkpt lat="43.59726" lon="5.07818">
        <ele>61.2</ele>
        <time>2021-04-08T14:21:04+02:00</time>
      </trkpt>
      <trkpt lat="43.59733" lon="5.07848">
        <ele>61.2</ele>
        <time>2021-04-08T14:21:22+02:00</time>
      </trkpt>
      <trkpt lat="43.59735" lon="5.0788">
        <ele>61.3</ele>
        <time>2021-04-08T14:21:40+02:00</time>
      </trkpt>
      <trkpt lat="43.59734" lon="5.07912">
        <ele>61.4</ele>
        <time>2021-04-08T14:21:52+02:00</time>
      </trkpt>
      <trkpt lat="43.59734" lon="5.07944">
        <ele>61.4</ele>
        <time>2021-04-08T14:22:12+02:00</time>
      </trkpt>
      <trkpt lat="43.59738" lon="5.07976">
        <ele>61.3</ele>
        <time>2021-04-08T14:22:29+02:00</time>
      </trkpt>
      <trkpt lat="43.59748" lon="5.08005">
        <ele>61.1</ele>
        <time>2021-04-08T14:22:48+02:00</time>
      </trkpt>
      <trkpt lat="43.59752" lon="5.08037">
        <ele>61</ele>
        <time>2021-04-08T14:23:09+02:00</time>
      </trkpt>
      <trkpt lat="43.59755" lon="5.08068">
        <ele>61</ele>
        <time>2021-04-08T14:23:26+02:00</time>
      </trkpt>
      <trkpt lat="43.59759" lon="5.08098">
        <ele>61.2</ele>
        <time>2021-04-08T14:23:49+02:00</time>
      </trkpt>
      <trkpt lat="43.5976" lon="5.08131">
        <ele>61.5</ele>
        <time>2021-04-08T14:24:16+02:00</time>
      </trkpt>
      <trkpt lat="43.59766" lon="5.08162">
        <ele>61.8</ele>
        <time>2021-04-08T14:24:44+02:00</time>
      </trkpt>
      <trkpt lat="43.59776" lon="5.08191">
        <ele>61.6</ele>
        <time>2021-04-08T14:24:59+02:00</time>
      </trkpt>
      <trkpt lat="43.59779" lon="5.08222">
        <ele>61.4</ele>
        <time>2021-04-08T14:25:20+02:00</time>
      </trkpt>
      <trkpt lat="43.59784" lon="5.08253">
        <ele>61.2</ele>
        <time>2021-04-08T14:25:37+02:00</time>
      </trkpt>
      <trkpt lat="43.59789" lon="5.08284">
        <ele>61.7</ele>
        <time>2021-04-08T14:25:56+02:00</time>
      </trkpt>
      <trkpt lat="43.59797" lon="5.08313">
        <ele>62.1</ele>
        <time>2021-04-08T14:26:15+02:00</time>
      </trkpt>
      <trkpt lat="43.59788" lon="5.08344">
        <ele>62.6</ele>
        <time>2021-04-08T14:26:31+02:00</time>
      </trkpt>
      <trkpt lat="43.59788" lon="5.08376">
        <ele>62.8</ele>
        <time>2021-04-08T14:26:50+02:00</time>
      </trkpt>
      <trkpt lat="43.59768" lon="5.08392">
        <ele>63.3</ele>
        <time>2021-04-08T14:27:22+02:00</time>
      </trkpt>
      <trkpt lat="43.59755" lon="5.08418">
        <ele>63.9</ele>
        <time>2021-04-08T14:27:38+02:00</time>
      </trkpt>
      <trkpt lat="43.59757" lon="5.08448">
        <ele>64.9</ele>
        <time>2021-04-08T14:27:57+02:00</time>
      </trkpt>
      <trkpt lat="43.59761" lon="5.0848">
        <ele>65.7</ele>
        <time>2021-04-08T14:28:20+02:00</time>
      </trkpt>
      <trkpt lat="43.59763" lon="5.08513">
        <ele>66.3</ele>
        <time>2021-04-08T14:28:43+02:00</time>
      </trkpt>
      <trkpt lat="43.59764" lon="5.08544">
        <ele>66.5</ele>
        <time>2021-04-08T14:29:02+02:00</time>
      </trkpt>
      <trkpt lat="43.59768" lon="5.08575">
        <ele>66.4</ele>
        <time>2021-04-08T14:29:25+02:00</time>
      </trkpt>
      <trkpt lat="43.59771" lon="5.08607">
        <ele>65.8</ele>
        <time>2021-04-08T14:29:46+02:00</time>
      </trkpt>
      <trkpt lat="43.59771" lon="5.08639">
        <ele>65.2</ele>
        <time>2021-04-08T14:30:06+02:00</time>
      </trkpt>
      <trkpt lat="43.59776" lon="5.08669">
        <ele>64.4</ele>
        <time>2021-04-08T14:30:27+02:00</time>
      </trkpt>
      <trkpt lat="43.59776" lon="5.08702">
        <ele>63.7</ele>
        <time>2021-04-08T14:30:47+02:00</time>
      </trkpt>
      <trkpt lat="43.59775" lon="5.08735">
        <ele>63.1</ele>
        <time>2021-04-08T14:31:11+02:00</time>
      </trkpt>
      <trkpt lat="43.59773" lon="5.08766">
        <ele>62.6</ele>
        <time>2021-04-08T14:31:31+02:00</time>
      </trkpt>
      <trkpt lat="43.59772" lon="5.08798">
        <ele>62</ele>
        <time>2021-04-08T14:31:52+02:00</time>
      </trkpt>
      <trkpt lat="43.59768" lon="5.08829">
        <ele>61.5</ele>
        <time>2021-04-08T14:32:15+02:00</time>
      </trkpt>
      <trkpt lat="43.59758" lon="5.08858">
        <ele>61.2</ele>
        <time>2021-04-08T14:32:35+02:00</time>
      </trkpt>
      <trkpt lat="43.59751" lon="5.08888">
        <ele>60.7</ele>
        <time>2021-04-08T14:32:58+02:00</time>
      </trkpt>
      <trkpt lat="43.59734" lon="5.0891">
        <ele>60.2</ele>
        <time>2021-04-08T14:33:15+02:00</time>
      </trkpt>
      <trkpt lat="43.59717" lon="5.08933">
        <ele>59.6</ele>
        <time>2021-04-08T14:33:51+02:00</time>
      </trkpt>
      <trkpt lat="43.59696" lon="5.08921">
        <ele>59.9</ele>
        <time>2021-04-08T14:34:19+02:00</time>
      </trkpt>
      <trkpt lat="43.59673" lon="5.0893">
        <ele>59.7</ele>
        <time>2021-04-08T14:34:39+02:00</time>
      </trkpt>
      <trkpt lat="43.5965" lon="5.08931">
        <ele>59.8</ele>
        <time>2021-04-08T14:35:06+02:00</time>
      </trkpt>
      <trkpt lat="43.59626" lon="5.08932">
        <ele>60</ele>
        <time>2021-04-08T14:35:28+02:00</time>
      </trkpt>
      <trkpt lat="43.59605" lon="5.0892">
        <ele>60.6</ele>
        <time>2021-04-08T14:35:47+02:00</time>
      </trkpt>
      <trkpt lat="43.59582" lon="5.08928">
        <ele>60.5</ele>
        <time>2021-04-08T14:36:11+02:00</time>
      </trkpt>
      <trkpt lat="43.5956" lon="5.08937">
        <ele>60.7</ele>
        <time>2021-04-08T14:36:36+02:00</time>
      </trkpt>
      <trkpt lat="43.59539" lon="5.08951">
        <ele>60.5</ele>
        <time>2021-04-08T14:36:56+02:00</time>
      </trkpt>
      <trkpt lat="43.59518" lon="5.08941">
        <ele>61.8</ele>
        <time>2021-04-08T14:37:36+02:00</time>
      </trkpt>
      <trkpt lat="43.59495" lon="5.08931">
        <ele>62.8</ele>
        <time>2021-04-08T14:37:54+02:00</time>
      </trkpt>
      <trkpt lat="43.59475" lon="5.08916">
        <ele>62.9</ele>
        <time>2021-04-08T14:38:13+02:00</time>
      </trkpt>
      <trkpt lat="43.59453" lon="5.08906">
        <ele>63.1</ele>
        <time>2021-04-08T14:38:36+02:00</time>
      </trkpt>
      <trkpt lat="43.59431" lon="5.08897">
        <ele>63.3</ele>
        <time>2021-04-08T14:38:59+02:00</time>
      </trkpt>
      <trkpt lat="43.59409" lon="5.08885">
        <ele>64</ele>
        <time>2021-04-08T14:39:21+02:00</time>
      </trkpt>
      <trkpt lat="43.59388" lon="5.08872">
        <ele>65</ele>
        <time>2021-04-08T14:39:43+02:00</time>
      </trkpt>
      <trkpt lat="43.59365" lon="5.08867">
        <ele>64.9</ele>
        <time>2021-04-08T14:40:02+02:00</time>
      </trkpt>
      <trkpt lat="43.59347" lon="5.08847">
        <ele>66.3</ele>
        <time>2021-04-08T14:40:21+02:00</time>
      </trkpt>
      <trkpt lat="43.59324" lon="5.08845">
        <ele>65.5</ele>
        <time>2021-04-08T14:40:39+02:00</time>
      </trkpt>
      <trkpt lat="43.59301" lon="5.08835">
        <ele>65.7</ele>
        <time>2021-04-08T14:40:58+02:00</time>
      </trkpt>
      <trkpt lat="43.59279" lon="5.08822">
        <ele>66.6</ele>
        <time>2021-04-08T14:41:17+02:00</time>
      </trkpt>
      <trkpt lat="43.59258" lon="5.08809">
        <ele>67.8</ele>
        <time>2021-04-08T14:41:39+02:00</time>
      </trkpt>
      <trkpt lat="43.59235" lon="5.0881">
        <ele>67.1</ele>
        <time>2021-04-08T14:41:56+02:00</time>
      </trkpt>
      <trkpt lat="43.59214" lon="5.08794">
        <ele>69</ele>
        <time>2021-04-08T14:42:15+02:00</time>
      </trkpt>
      <trkpt lat="43.5923" lon="5.08772">
        <ele>72.5</ele>
        <time>2021-04-08T14:43:00+02:00</time>
      </trkpt>
      <trkpt lat="43.59252" lon="5.08764">
        <ele>74</ele>
        <time>2021-04-08T14:43:32+02:00</time>
      </trkpt>
      <trkpt lat="43.59275" lon="5.08767">
        <ele>74</ele>
        <time>2021-04-08T14:44:00+02:00</time>
      </trkpt>
      <trkpt lat="43.59296" lon="5.08754">
        <ele>76</ele>
        <time>2021-04-08T14:44:23+02:00</time>
      </trkpt>
      <trkpt lat="43.59283" lon="5.08728">
        <ele>78.2</ele>
        <time>2021-04-08T14:45:43+02:00</time>
      </trkpt>
      <trkpt lat="43.59259" lon="5.08725">
        <ele>78.2</ele>
        <time>2021-04-08T14:46:09+02:00</time>
      </trkpt>
      <trkpt lat="43.59237" lon="5.0872">
        <ele>78.4</ele>
        <time>2021-04-08T14:46:23+02:00</time>
      </trkpt>
      <trkpt lat="43.59217" lon="5.08706">
        <ele>79.8</ele>
        <time>2021-04-08T14:46:49+02:00</time>
      </trkpt>
      <trkpt lat="43.59193" lon="5.08701">
        <ele>80.2</ele>
        <time>2021-04-08T14:47:16+02:00</time>
      </trkpt>
      <trkpt lat="43.5917" lon="5.08703">
        <ele>80.1</ele>
        <time>2021-04-08T14:47:53+02:00</time>
      </trkpt>
      <trkpt lat="43.59146" lon="5.08698">
        <ele>80.3</ele>
        <time>2021-04-08T14:48:19+02:00</time>
      </trkpt>
      <trkpt lat="43.59124" lon="5.08688">
        <ele>81.4</ele>
        <time>2021-04-08T14:48:42+02:00</time>
      </trkpt>
      <trkpt lat="43.591" lon="5.08682">
        <ele>81.9</ele>
        <time>2021-04-08T14:49:00+02:00</time>
      </trkpt>
      <trkpt lat="43.59081" lon="5.08664">
        <ele>83.9</ele>
        <time>2021-04-08T14:49:21+02:00</time>
      </trkpt>
      <trkpt lat="43.59061" lon="5.08651">
        <ele>83.1</ele>
        <time>2021-04-08T14:49:47+02:00</time>
      </trkpt>
      <trkpt lat="43.59055" lon="5.0862">
        <ele>82.2</ele>
        <time>2021-04-08T14:50:26+02:00</time>
      </trkpt>
      <trkpt lat="43.59039" lon="5.08598">
        <ele>80.8</ele>
        <time>2021-04-08T14:50:53+02:00</time>
      </trkpt>
      <trkpt lat="43.59016" lon="5.08602">
        <ele>79.7</ele>
        <time>2021-04-08T14:51:21+02:00</time>
      </trkpt>
      <trkpt lat="43.58994" lon="5.08594">
        <ele>78</ele>
        <time>2021-04-08T14:51:47+02:00</time>
      </trkpt>
      <trkpt lat="43.5897" lon="5.08595">
        <ele>76.1</ele>
        <time>2021-04-08T14:52:48+02:00</time>
      </trkpt>
      <trkpt lat="43.58962" lon="5.08565">
        <ele>73.6</ele>
        <time>2021-04-08T14:53:30+02:00</time>
      </trkpt>
      <trkpt lat="43.58956" lon="5.08534">
        <ele>71.2</ele>
        <time>2021-04-08T14:53:54+02:00</time>
      </trkpt>
      <trkpt lat="43.58946" lon="5.08505">
        <ele>69.3</ele>
        <time>2021-04-08T14:54:28+02:00</time>
      </trkpt>
      <trkpt lat="43.58932" lon="5.0848">
        <ele>68.2</ele>
        <time>2021-04-08T14:54:54+02:00</time>
      </trkpt>
      <trkpt lat="43.58908" lon="5.08478">
        <ele>68.1</ele>
        <time>2021-04-08T14:55:30+02:00</time>
      </trkpt>
      <trkpt lat="43.58886" lon="5.08484">
        <ele>67.9</ele>
        <time>2021-04-08T14:55:51+02:00</time>
      </trkpt>
      <trkpt lat="43.58864" lon="5.08493">
        <ele>67.6</ele>
        <time>2021-04-08T14:56:13+02:00</time>
      </trkpt>
      <trkpt lat="43.58842" lon="5.08496">
        <ele>67.2</ele>
        <time>2021-04-08T14:56:32+02:00</time>
      </trkpt>
      <trkpt lat="43.58819" lon="5.08494">
        <ele>66.7</ele>
        <time>2021-04-08T14:56:50+02:00</time>
      </trkpt>
      <trkpt lat="43.58796" lon="5.08488">
        <ele>66.3</ele>
        <time>2021-04-08T14:57:17+02:00</time>
      </trkpt>
      <trkpt lat="43.58773" lon="5.08498">
        <ele>65.6</ele>
        <time>2021-04-08T14:57:35+02:00</time>
      </trkpt>
      <trkpt lat="43.5875" lon="5.08498">
        <ele>65.1</ele>
        <time>2021-04-08T14:57:53+02:00</time>
      </trkpt>
      <trkpt lat="43.58729" lon="5.08513">
        <ele>65.1</ele>
        <time>2021-04-08T14:58:15+02:00</time>
      </trkpt>
      <trkpt lat="43.58706" lon="5.08518">
        <ele>65.1</ele>
        <time>2021-04-08T14:58:35+02:00</time>
      </trkpt>
      <trkpt lat="43.58683" lon="5.08515">
        <ele>65</ele>
        <time>2021-04-08T14:58:57+02:00</time>
      </trkpt>
      <trkpt lat="43.58662" lon="5.08501">
        <ele>65.1</ele>
        <time>2021-04-08T14:59:29+02:00</time>
      </trkpt>
      <trkpt lat="43.58638" lon="5.08496">
        <ele>65.4</ele>
        <time>2021-04-08T14:59:48+02:00</time>
      </trkpt>
      <trkpt lat="43.58617" lon="5.08483">
        <ele>66.1</ele>
        <time>2021-04-08T15:00:11+02:00</time>
      </trkpt>
      <trkpt lat="43.58595" lon="5.08474">
        <ele>66.8</ele>
        <time>2021-04-08T15:00:28+02:00</time>
      </trkpt>
      <trkpt lat="43.58573" lon="5.08466">
        <ele>66.9</ele>
        <time>2021-04-08T15:00:48+02:00</time>
      </trkpt>
      <trkpt lat="43.58556" lon="5.08445">
        <ele>67.2</ele>
        <time>2021-04-08T15:01:09+02:00</time>
      </trkpt>
      <trkpt lat="43.58534" lon="5.0845">
        <ele>66.4</ele>
        <time>2021-04-08T15:01:27+02:00</time>
      </trkpt>
      <trkpt lat="43.58518" lon="5.08426">
        <ele>67</ele>
        <time>2021-04-08T15:02:00+02:00</time>
      </trkpt>
      <trkpt lat="43.585" lon="5.08406">
        <ele>67.3</ele>
        <time>2021-04-08T15:02:22+02:00</time>
      </trkpt>
      <trkpt lat="43.58484" lon="5.08383">
        <ele>68.2</ele>
        <time>2021-04-08T15:02:40+02:00</time>
      </trkpt>
      <trkpt lat="43.58473" lon="5.08353">
        <ele>69</ele>
        <time>2021-04-08T15:03:02+02:00</time>
      </trkpt>
      <trkpt lat="43.58457" lon="5.08329">
        <ele>69.4</ele>
        <time>2021-04-08T15:03:20+02:00</time>
      </trkpt>
      <trkpt lat="43.58441" lon="5.08306">
        <ele>68.8</ele>
        <time>2021-04-08T15:03:45+02:00</time>
      </trkpt>
      <trkpt lat="43.58425" lon="5.08283">
        <ele>68.1</ele>
        <time>2021-04-08T15:04:12+02:00</time>
      </trkpt>
      <trkpt lat="43.58418" lon="5.08253">
        <ele>67.1</ele>
        <time>2021-04-08T15:04:39+02:00</time>
      </trkpt>
      <trkpt lat="43.58407" lon="5.08224">
        <ele>66</ele>
        <time>2021-04-08T15:05:05+02:00</time>
      </trkpt>
      <trkpt lat="43.58395" lon="5.08198">
        <ele>65.3</ele>
        <time>2021-04-08T15:05:22+02:00</time>
      </trkpt>
      <trkpt lat="43.58374" lon="5.08184">
        <ele>64.9</ele>
        <time>2021-04-08T15:05:40+02:00</time>
      </trkpt>
      <trkpt lat="43.58362" lon="5.08157">
        <ele>64.8</ele>
        <time>2021-04-08T15:06:08+02:00</time>
      </trkpt>
      <trkpt lat="43.58368" lon="5.08125">
        <ele>64.2</ele>
        <time>2021-04-08T15:06:33+02:00</time>
      </trkpt>
      <trkpt lat="43.58371" lon="5.08093">
        <ele>63.4</ele>
        <time>2021-04-08T15:06:58+02:00</time>
      </trkpt>
      <trkpt lat="43.5837" lon="5.08061">
        <ele>63.2</ele>
        <time>2021-04-08T15:07:23+02:00</time>
      </trkpt>
      <trkpt lat="43.58374" lon="5.08031">
        <ele>63</ele>
        <time>2021-04-08T15:07:43+02:00</time>
      </trkpt>
      <trkpt lat="43.58381" lon="5.08001">
        <ele>62.7</ele>
        <time>2021-04-08T15:08:00+02:00</time>
      </trkpt>
      <trkpt lat="43.58375" lon="5.07971">
        <ele>64.2</ele>
        <time>2021-04-08T15:08:20+02:00</time>
      </trkpt>
      <trkpt lat="43.58381" lon="5.0794">
        <ele>65.4</ele>
        <time>2021-04-08T15:08:39+02:00</time>
      </trkpt>
      <trkpt lat="43.58385" lon="5.0791">
        <ele>66.5</ele>
        <time>2021-04-08T15:09:13+02:00</time>
      </trkpt>
      <trkpt lat="43.58409" lon="5.07914">
        <ele>66.2</ele>
        <time>2021-04-08T15:10:06+02:00</time>
      </trkpt>
      <trkpt lat="43.58423" lon="5.0789">
        <ele>66.5</ele>
        <time>2021-04-08T15:10:42+02:00</time>
      </trkpt>
      <trkpt lat="43.58421" lon="5.07856">
        <ele>67.3</ele>
        <time>2021-04-08T15:11:19+02:00</time>
      </trkpt>
      <trkpt lat="43.58424" lon="5.07823">
        <ele>67.8</ele>
        <time>2021-04-08T15:11:43+02:00</time>
      </trkpt>
      <trkpt lat="43.58404" lon="5.07805">
        <ele>68</ele>
        <time>2021-04-08T15:12:03+02:00</time>
      </trkpt>
      <trkpt lat="43.58401" lon="5.07772">
        <ele>67.9</ele>
        <time>2021-04-08T15:12:28+02:00</time>
      </trkpt>
      <trkpt lat="43.58406" lon="5.07742">
        <ele>68</ele>
        <time>2021-04-08T15:12:55+02:00</time>
      </trkpt>
      <trkpt lat="43.58404" lon="5.07708">
        <ele>68.3</ele>
        <time>2021-04-08T15:13:13+02:00</time>
      </trkpt>
      <trkpt lat="43.58421" lon="5.07686">
        <ele>68.7</ele>
        <time>2021-04-08T15:13:39+02:00</time>
      </trkpt>
      <trkpt lat="43.58443" lon="5.07679">
        <ele>68.5</ele>
        <time>2021-04-08T15:14:02+02:00</time>
      </trkpt>
      <trkpt lat="43.58462" lon="5.07659">
        <ele>68.4</ele>
        <time>2021-04-08T15:14:26+02:00</time>
      </trkpt>
      <trkpt lat="43.58477" lon="5.07636">
        <ele>67.8</ele>
        <time>2021-04-08T15:14:49+02:00</time>
      </trkpt>
      <trkpt lat="43.58495" lon="5.07614">
        <ele>66.9</ele>
        <time>2021-04-08T15:15:12+02:00</time>
      </trkpt>
      <trkpt lat="43.58518" lon="5.0761">
        <ele>66.8</ele>
        <time>2021-04-08T15:15:47+02:00</time>
      </trkpt>
      <trkpt lat="43.5854" lon="5.07613">
        <ele>67</ele>
        <time>2021-04-08T15:16:16+02:00</time>
      </trkpt>
      <trkpt lat="43.58562" lon="5.07626">
        <ele>67.4</ele>
        <time>2021-04-08T15:20:00+02:00</time>
      </trkpt>
      <trkpt lat="43.58585" lon="5.0763">
        <ele>67.6</ele>
        <time>2021-04-08T15:21:15+02:00</time>
      </trkpt>
      <trkpt lat="43.58608" lon="5.07626">
        <ele>67.5</ele>
        <time>2021-04-08T15:21:37+02:00</time>
      </trkpt>
      <trkpt lat="43.5863" lon="5.07621">
        <ele>67.5</ele>
        <time>2021-04-08T15:21:57+02:00</time>
      </trkpt>
      <trkpt lat="43.58651" lon="5.0761">
        <ele>67.6</ele>
        <time>2021-04-08T15:22:13+02:00</time>
      </trkpt>
      <trkpt lat="43.5867" lon="5.0759">
        <ele>67.9</ele>
        <time>2021-04-08T15:22:37+02:00</time>
      </trkpt>
      <trkpt lat="43.58689" lon="5.07572">
        <ele>68.3</ele>
        <time>2021-04-08T15:22:52+02:00</time>
      </trkpt>
      <trkpt lat="43.58705" lon="5.0755">
        <ele>69</ele>
        <time>2021-04-08T15:23:32+02:00</time>
      </trkpt>
      <trkpt lat="43.58722" lon="5.07572">
        <ele>68.4</ele>
        <time>2021-04-08T15:24:22+02:00</time>
      </trkpt>
      <trkpt lat="43.58743" lon="5.07583">
        <ele>68</ele>
        <time>2021-04-08T15:24:57+02:00</time>
      </trkpt>
      <trkpt lat="43.58746" lon="5.07551">
        <ele>69.5</ele>
        <time>2021-04-08T15:26:08+02:00</time>
      </trkpt>
      <trkpt lat="43.58758" lon="5.07524">
        <ele>70.9</ele>
        <time>2021-04-08T15:27:04+02:00</time>
      </trkpt>
      <trkpt lat="43.58764" lon="5.07494">
        <ele>72.2</ele>
        <time>2021-04-08T15:27:37+02:00</time>
      </trkpt>
      <trkpt lat="43.58742" lon="5.07482">
        <ele>72</ele>
        <time>2021-04-08T15:28:08+02:00</time>
      </trkpt>
      <trkpt lat="43.58725" lon="5.07461">
        <ele>72</ele>
        <time>2021-04-08T15:28:35+02:00</time>
      </trkpt>
      <trkpt lat="43.58721" lon="5.07431">
        <ele>72.7</ele>
        <time>2021-04-08T15:29:05+02:00</time>
      </trkpt>
      <trkpt lat="43.5873" lon="5.07402">
        <ele>73.4</ele>
        <time>2021-04-08T15:29:37+02:00</time>
      </trkpt>
      <trkpt lat="43.58746" lon="5.07379">
        <ele>73.9</ele>
        <time>2021-04-08T15:30:09+02:00</time>
      </trkpt>
      <trkpt lat="43.58765" lon="5.07359">
        <ele>74.1</ele>
        <time>2021-04-08T15:31:36+02:00</time>
      </trkpt>
      <trkpt lat="43.58787" lon="5.07347">
        <ele>73.9</ele>
        <time>2021-04-08T15:32:16+02:00</time>
      </trkpt>
      <trkpt lat="43.58806" lon="5.07327">
        <ele>73.9</ele>
        <time>2021-04-08T15:32:33+02:00</time>
      </trkpt>
      <trkpt lat="43.58826" lon="5.07312">
        <ele>74.2</ele>
        <time>2021-04-08T15:32:54+02:00</time>
      </trkpt>
      <trkpt lat="43.58849" lon="5.07297">
        <ele>74.5</ele>
        <time>2021-04-08T15:33:09+02:00</time>
      </trkpt>
      <trkpt lat="43.58871" lon="5.07287">
        <ele>74.5</ele>
        <time>2021-04-08T15:33:28+02:00</time>
      </trkpt>
      <trkpt lat="43.58894" lon="5.07288">
        <ele>74</ele>
        <time>2021-04-08T15:33:53+02:00</time>
      </trkpt>
      <trkpt lat="43.58907" lon="5.07261">
        <ele>74.2</ele>
        <time>2021-04-08T15:34:09+02:00</time>
      </trkpt>
      <trkpt lat="43.58909" lon="5.0723">
        <ele>74.7</ele>
        <time>2021-04-08T15:34:28+02:00</time>
      </trkpt>
      <trkpt lat="43.58926" lon="5.07209">
        <ele>74.6</ele>
        <time>2021-04-08T15:34:56+02:00</time>
      </trkpt>
      <trkpt lat="43.58933" lon="5.07179">
        <ele>74.7</ele>
        <time>2021-04-08T15:35:18+02:00</time>
      </trkpt>
      <trkpt lat="43.58947" lon="5.07153">
        <ele>73.9</ele>
        <time>2021-04-08T15:35:52+02:00</time>
      </trkpt>
      <trkpt lat="43.58962" lon="5.07129">
        <ele>73</ele>
        <time>2021-04-08T15:36:15+02:00</time>
      </trkpt>
      <trkpt lat="43.58974" lon="5.07101">
        <ele>72.4</ele>
        <time>2021-04-08T15:36:31+02:00</time>
      </trkpt>
      <trkpt lat="43.58984" lon="5.07074">
        <ele>71.9</ele>
        <time>2021-04-08T15:36:47+02:00</time>
      </trkpt>
      <trkpt lat="43.59004" lon="5.07057">
        <ele>71.3</ele>
        <time>2021-04-08T15:37:08+02:00</time>
      </trkpt>
      <trkpt lat="43.59018" lon="5.07031">
        <ele>71.5</ele>
        <time>2021-04-08T15:37:32+02:00</time>
      </trkpt>
      <trkpt lat="43.5904" lon="5.07024">
        <ele>71.4</ele>
        <time>2021-04-08T15:37:55+02:00</time>
      </trkpt>
      <trkpt lat="43.59062" lon="5.07016">
        <ele>71.5</ele>
        <time>2021-04-08T15:38:15+02:00</time>
      </trkpt>
      <trkpt lat="43.59085" lon="5.07007">
        <ele>71.8</ele>
        <time>2021-04-08T15:38:35+02:00</time>
      </trkpt>
      <trkpt lat="43.59108" lon="5.07003">
        <ele>73.1</ele>
        <time>2021-04-08T15:39:03+02:00</time>
      </trkpt>
      <trkpt lat="43.59131" lon="5.0701">
        <ele>73.6</ele>
        <time>2021-04-08T15:39:37+02:00</time>
      </trkpt>
      <trkpt lat="43.59154" lon="5.07009">
        <ele>74.6</ele>
        <time>2021-04-08T15:39:57+02:00</time>
      </trkpt>
      <trkpt lat="43.59173" lon="5.06992">
        <ele>76.2</ele>
        <time>2021-04-08T15:40:21+02:00</time>
      </trkpt>
      <trkpt lat="43.5919" lon="5.0697">
        <ele>76.6</ele>
        <time>2021-04-08T15:40:39+02:00</time>
      </trkpt>
      <trkpt lat="43.59208" lon="5.06948">
        <ele>76.9</ele>
        <time>2021-04-08T15:41:11+02:00</time>
      </trkpt>
      <trkpt lat="43.59232" lon="5.06945">
        <ele>76.8</ele>
        <time>2021-04-08T15:42:15+02:00</time>
      </trkpt>
      <trkpt lat="43.59213" lon="5.06961">
        <ele>76.7</ele>
        <time>2021-04-08T15:43:56+02:00</time>
      </trkpt>
      <trkpt lat="43.59191" lon="5.06971">
        <ele>76.6</ele>
        <time>2021-04-08T15:45:57+02:00</time>
      </trkpt>
      <trkpt lat="43.59171" lon="5.06985">
        <ele>76.3</ele>
        <time>2021-04-08T15:46:37+02:00</time>
      </trkpt>
      <trkpt lat="43.59152" lon="5.07001">
        <ele>75.2</ele>
        <time>2021-04-08T15:47:04+02:00</time>
      </trkpt>
      <trkpt lat="43.59128" lon="5.07004">
        <ele>73.8</ele>
        <time>2021-04-08T15:47:38+02:00</time>
      </trkpt>
      <trkpt lat="43.59105" lon="5.06999">
        <ele>73.1</ele>
        <time>2021-04-08T15:48:10+02:00</time>
      </trkpt>
      <trkpt lat="43.59102" lon="5.06968">
        <ele>72.5</ele>
        <time>2021-04-08T15:48:38+02:00</time>
      </trkpt>
      <trkpt lat="43.59112" lon="5.0694">
        <ele>72.9</ele>
        <time>2021-04-08T15:49:00+02:00</time>
      </trkpt>
      <trkpt lat="43.59133" lon="5.06927">
        <ele>74.7</ele>
        <time>2021-04-08T15:49:25+02:00</time>
      </trkpt>
      <trkpt lat="43.59152" lon="5.06908">
        <ele>76.2</ele>
        <time>2021-04-08T15:49:55+02:00</time>
      </trkpt>
      <trkpt lat="43.59173" lon="5.06901">
        <ele>77.2</ele>
        <time>2021-04-08T15:50:16+02:00</time>
      </trkpt>
      <trkpt lat="43.59196" lon="5.06894">
        <ele>76.6</ele>
        <time>2021-04-08T15:50:35+02:00</time>
      </trkpt>
      <trkpt lat="43.59217" lon="5.06883">
        <ele>76</ele>
        <time>2021-04-08T15:51:08+02:00</time>
      </trkpt>
      <trkpt lat="43.59238" lon="5.06872">
        <ele>75.4</ele>
        <time>2021-04-08T15:51:30+02:00</time>
      </trkpt>
      <trkpt lat="43.59261" lon="5.06866">
        <ele>74.9</ele>
        <time>2021-04-08T15:51:53+02:00</time>
      </trkpt>
      <trkpt lat="43.59284" lon="5.06862">
        <ele>74.1</ele>
        <time>2021-04-08T15:52:09+02:00</time>
      </trkpt>
      <trkpt lat="43.59307" lon="5.06865">
        <ele>73.5</ele>
        <time>2021-04-08T15:52:30+02:00</time>
      </trkpt>
      <trkpt lat="43.59329" lon="5.06855">
        <ele>72.6</ele>
        <time>2021-04-08T15:53:04+02:00</time>
      </trkpt>
      <trkpt lat="43.59324" lon="5.06885">
        <ele>73.5</ele>
        <time>2021-04-08T15:54:04+02:00</time>
      </trkpt>
      <trkpt lat="43.5934" lon="5.06863">
        <ele>72.5</ele>
        <time>2021-04-08T15:55:30+02:00</time>
      </trkpt>
      <trkpt lat="43.59352" lon="5.06835">
        <ele>71.6</ele>
        <time>2021-04-08T15:56:01+02:00</time>
      </trkpt>
      <trkpt lat="43.59374" lon="5.06823">
        <ele>71.1</ele>
        <time>2021-04-08T15:56:40+02:00</time>
      </trkpt>
      <trkpt lat="43.59396" lon="5.06816">
        <ele>70.8</ele>
        <time>2021-04-08T15:57:11+02:00</time>
      </trkpt>
      <trkpt lat="43.59419" lon="5.06813">
        <ele>70.5</ele>
        <time>2021-04-08T15:58:01+02:00</time>
      </trkpt>
      <trkpt lat="43.59442" lon="5.0682">
        <ele>69.9</ele>
        <time>2021-04-08T15:58:50+02:00</time>
      </trkpt>
      <trkpt lat="43.59465" lon="5.06814">
        <ele>69.8</ele>
        <time>2021-04-08T15:59:03+02:00</time>
      </trkpt>
      <trkpt lat="43.59488" lon="5.06818">
        <ele>69.3</ele>
        <time>2021-04-08T15:59:18+02:00</time>
      </trkpt>
      <trkpt lat="43.59509" lon="5.06832">
        <ele>67.9</ele>
        <time>2021-04-08T15:59:35+02:00</time>
      </trkpt>
      <trkpt lat="43.59532" lon="5.06828">
        <ele>67.7</ele>
        <time>2021-04-08T16:00:10+02:00</time>
      </trkpt>
      <trkpt lat="43.59552" lon="5.06841">
        <ele>66.6</ele>
        <time>2021-04-08T16:00:33+02:00</time>
      </trkpt>
      <trkpt lat="43.59576" lon="5.06845">
        <ele>66.1</ele>
        <time>2021-04-08T16:00:55+02:00</time>
      </trkpt>
      <trkpt lat="43.59599" lon="5.06848">
        <ele>65.7</ele>
        <time>2021-04-08T16:01:18+02:00</time>
      </trkpt>
      <trkpt lat="43.59624" lon="5.06842">
        <ele>65.1</ele>
        <time>2021-04-08T16:01:36+02:00</time>
      </trkpt>
      <trkpt lat="43.59647" lon="5.06838">
        <ele>64.6</ele>
        <time>2021-04-08T16:01:53+02:00</time>
      </trkpt>
      <trkpt lat="43.5967" lon="5.06832">
        <ele>64</ele>
        <time>2021-04-08T16:02:12+02:00</time>
      </trkpt>
      <trkpt lat="43.59692" lon="5.06824">
        <ele>63.8</ele>
        <time>2021-04-08T16:02:30+02:00</time>
      </trkpt>
      <trkpt lat="43.59713" lon="5.06813">
        <ele>63.6</ele>
        <time>2021-04-08T16:02:50+02:00</time>
      </trkpt>
      <trkpt lat="43.59735" lon="5.06804">
        <ele>63.2</ele>
        <time>2021-04-08T16:03:08+02:00</time>
      </trkpt>
      <trkpt lat="43.59758" lon="5.06801">
        <ele>62.7</ele>
        <time>2021-04-08T16:03:31+02:00</time>
      </trkpt>
      <trkpt lat="43.59781" lon="5.06806">
        <ele>62.2</ele>
        <time>2021-04-08T16:03:54+02:00</time>
      </trkpt>
      <trkpt lat="43.59802" lon="5.06794">
        <ele>62</ele>
        <time>2021-04-08T16:04:13+02:00</time>
      </trkpt>
      <trkpt lat="43.59823" lon="5.06779">
        <ele>61.9</ele>
        <time>2021-04-08T16:04:34+02:00</time>
      </trkpt>
      <trkpt lat="43.59845" lon="5.06772">
        <ele>61.6</ele>
        <time>2021-04-08T16:05:04+02:00</time>
      </trkpt>
      <trkpt lat="43.59868" lon="5.06775">
        <ele>61.3</ele>
        <time>2021-04-08T16:05:28+02:00</time>
      </trkpt>
      <trkpt lat="43.59891" lon="5.06778">
        <ele>61</ele>
        <time>2021-04-08T16:05:45+02:00</time>
      </trkpt>
      <trkpt lat="43.59913" lon="5.06786">
        <ele>60.6</ele>
        <time>2021-04-08T16:06:04+02:00</time>
      </trkpt>
      <trkpt lat="43.59935" lon="5.06796">
        <ele>60.2</ele>
        <time>2021-04-08T16:06:32+02:00</time>
      </trkpt>
      <trkpt lat="43.59958" lon="5.0679">
        <ele>60</ele>
        <time>2021-04-08T16:06:48+02:00</time>
      </trkpt>
      <trkpt lat="43.59981" lon="5.06795">
        <ele>59.7</ele>
        <time>2021-04-08T16:07:12+02:00</time>
      </trkpt>
      <trkpt lat="43.60004" lon="5.06801">
        <ele>59.5</ele>
        <time>2021-04-08T16:07:40+02:00</time>
      </trkpt>
      <trkpt lat="43.60024" lon="5.06819">
        <ele>60.1</ele>
        <time>2021-04-08T16:08:01+02:00</time>
      </trkpt>
      <trkpt lat="43.60046" lon="5.06816">
        <ele>61</ele>
        <time>2021-04-08T16:08:37+02:00</time>
      </trkpt>
      <trkpt lat="43.60069" lon="5.06826">
        <ele>61.6</ele>
        <time>2021-04-08T16:09:07+02:00</time>
      </trkpt>
      <trkpt lat="43.60092" lon="5.06824">
        <ele>62.3</ele>
        <time>2021-04-08T16:09:29+02:00</time>
      </trkpt>
      <trkpt lat="43.60113" lon="5.06811">
        <ele>62.9</ele>
        <time>2021-04-08T16:09:52+02:00</time>
      </trkpt>
      <trkpt lat="43.60135" lon="5.06823">
        <ele>62.9</ele>
        <time>2021-04-08T16:10:06+02:00</time>
      </trkpt>
      <trkpt lat="43.60158" lon="5.06819">
        <ele>63.2</ele>
        <time>2021-04-08T16:10:31+02:00</time>
      </trkpt>
      <trkpt lat="43.60181" lon="5.06821">
        <ele>63.6</ele>
        <time>2021-04-08T16:10:48+02:00</time>
      </trkpt>
      <trkpt lat="43.60203" lon="5.06813">
        <ele>64.1</ele>
        <time>2021-04-08T16:11:08+02:00</time>
      </trkpt>
      <trkpt lat="43.60226" lon="5.06813">
        <ele>64.6</ele>
        <time>2021-04-08T16:11:29+02:00</time>
      </trkpt>
      <trkpt lat="43.60249" lon="5.06815">
        <ele>65</ele>
        <time>2021-04-08T16:11:51+02:00</time>
      </trkpt>
      <trkpt lat="43.60272" lon="5.06819">
        <ele>63.7</ele>
        <time>2021-04-08T16:12:11+02:00</time>
      </trkpt>
      <trkpt lat="43.60295" lon="5.06821">
        <ele>62.4</ele>
        <time>2021-04-08T16:12:42+02:00</time>
      </trkpt>
      <trkpt lat="43.60307" lon="5.06848">
        <ele>61.8</ele>
        <time>2021-04-08T16:13:13+02:00</time>
      </trkpt>
      <trkpt lat="43.60313" lon="5.06879">
        <ele>61.8</ele>
        <time>2021-04-08T16:13:42+02:00</time>
      </trkpt>
      <trkpt lat="43.60327" lon="5.06905">
        <ele>61.2</ele>
        <time>2021-04-08T16:13:56+02:00</time>
      </trkpt>
      <trkpt lat="43.60338" lon="5.06934">
        <ele>60.8</ele>
        <time>2021-04-08T16:14:26+02:00</time>
      </trkpt>
      <trkpt lat="43.6035" lon="5.06963">
        <ele>60.3</ele>
        <time>2021-04-08T16:14:40+02:00</time>
      </trkpt>
      <trkpt lat="43.60359" lon="5.06993">
        <ele>60</ele>
        <time>2021-04-08T16:15:02+02:00</time>
      </trkpt>
      <trkpt lat="43.60368" lon="5.07022">
        <ele>59.9</ele>
        <time>2021-04-08T16:15:22+02:00</time>
      </trkpt>
      <trkpt lat="43.60384" lon="5.07045">
        <ele>59.5</ele>
        <time>2021-04-08T16:15:48+02:00</time>
      </trkpt>
      <trkpt lat="43.60407" lon="5.07045">
        <ele>58.8</ele>
        <time>2021-04-08T16:16:13+02:00</time>
      </trkpt>
      <trkpt lat="43.60423" lon="5.07022">
        <ele>58.1</ele>
        <time>2021-04-08T16:16:39+02:00</time>
      </trkpt>
      <trkpt lat="43.60441" lon="5.07002">
        <ele>57.2</ele>
        <time>2021-04-08T16:17:05+02:00</time>
      </trkpt>
      <trkpt lat="43.60454" lon="5.06975">
        <ele>56.4</ele>
        <time>2021-04-08T16:17:28+02:00</time>
      </trkpt>
      <trkpt lat="43.60463" lon="5.06946">
        <ele>55.7</ele>
        <time>2021-04-08T16:17:48+02:00</time>
      </trkpt>
      <trkpt lat="43.60467" lon="5.06915">
        <ele>55.2</ele>
        <time>2021-04-08T16:18:18+02:00</time>
      </trkpt>
      <trkpt lat="43.60474" lon="5.06884">
        <ele>55.5</ele>
        <time>2021-04-08T16:18:46+02:00</time>
      </trkpt>
    </trkseg>
  </trk>
</gpx>